sensor_id;sensor_type;location;lat;lon;timestamp;temperature;humidity
7562;DHT22;3822;48.784;9.174;2023-04-25T00:04:03;11.90;80.20
7562;DHT22;3822;48.784;9.174;2023-04-25T00:09:18;11.90;80.10
7562;DHT22;3822;48.784;9.174;2023-04-25T00:11:57;11.90;80.00
7562;DHT22;3822;48.784;9.174;2023-04-25T00:19:42;12.00;80.20
7562;DHT22;3822;48.784;9.174;2023-04-25T00:22:15;12.00;80.10
7562;DHT22;3822;48.784;9.174;2023-04-25T00:24:42;12.00;80.20
7562;DHT22;3822;48.784;9.174;2023-04-25T00:27:13;12.00;80.10
7562;DHT22;3822;48.784;9.174;2023-04-25T00:32:12;12.00;80.30
7562;DHT22;3822;48.784;9.174;2023-04-25T00:37:29;12.10;80.30
7562;DHT22;3822;48.784;9.174;2023-04-25T00:39:59;12.10;80.20
7562;DHT22;3822;48.784;9.174;2023-04-25T00:42:36;12.10;80.20
7562;DHT22;3822;48.784;9.174;2023-04-25T00:47:35;12.00;80.10
7562;DHT22;3822;48.784;9.174;2023-04-25T00:50:03;12.00;80.10
7562;DHT22;3822;48.784;9.174;2023-04-25T00:52:29;12.00;80.70
7562;DHT22;3822;48.784;9.174;2023-04-25T00:54:56;12.00;80.00
7562;DHT22;3822;48.784;9.174;2023-04-25T00:57:33;12.00;80.00
7562;DHT22;3822;48.784;9.174;2023-04-25T01:00:01;10.70;78.80
7562;DHT22;3822;48.784;9.174;2023-04-25T01:02:27;12.00;80.10
7562;DHT22;3822;48.784;9.174;2023-04-25T01:04:56;12.00;80.10
7562;DHT22;3822;48.784;9.174;2023-04-25T01:07:25;12.00;80.10
7562;DHT22;3822;48.784;9.174;2023-04-25T01:09:56;11.90;80.00
7562;DHT22;3822;48.784;9.174;2023-04-25T01:12:24;11.90;80.10
7562;DHT22;3822;48.784;9.174;2023-04-25T01:14:59;12.00;80.20
7562;DHT22;3822;48.784;9.174;2023-04-25T01:17:25;12.00;80.20
7562;DHT22;3822;48.784;9.174;2023-04-25T01:19:55;12.00;80.20
7562;DHT22;3822;48.784;9.174;2023-04-25T01:25:09;12.00;80.30
7562;DHT22;3822;48.784;9.174;2023-04-25T01:27:38;12.00;80.30
7562;DHT22;3822;48.784;9.174;2023-04-25T01:30:06;11.90;80.30
7562;DHT22;3822;48.784;9.174;2023-04-25T01:32:33;12.00;80.50
7562;DHT22;3822;48.784;9.174;2023-04-25T01:38:00;11.90;80.40
7562;DHT22;3822;48.784;9.174;2023-04-25T01:40:27;11.90;80.40
7562;DHT22;3822;48.784;9.174;2023-04-25T01:42:54;11.80;80.40
7562;DHT22;3822;48.784;9.174;2023-04-25T01:45:25;11.90;80.70
7562;DHT22;3822;48.784;9.174;2023-04-25T01:47:56;11.80;80.70
7562;DHT22;3822;48.784;9.174;2023-04-25T01:50:33;11.70;80.80
7562;DHT22;3822;48.784;9.174;2023-04-25T01:55:43;11.70;81.20
7562;DHT22;3822;48.784;9.174;2023-04-25T01:58:23;11.70;81.20
7562;DHT22;3822;48.784;9.174;2023-04-25T02:00:51;11.70;81.30
7562;DHT22;3822;48.784;9.174;2023-04-25T02:03:31;11.70;81.50
7562;DHT22;3822;48.784;9.174;2023-04-25T02:06:10;11.70;81.60
7562;DHT22;3822;48.784;9.174;2023-04-25T02:08:46;11.60;81.60
7562;DHT22;3822;48.784;9.174;2023-04-25T02:13:49;11.60;81.90
7562;DHT22;3822;48.784;9.174;2023-04-25T02:16:19;11.60;82.10
7562;DHT22;3822;48.784;9.174;2023-04-25T02:18:47;11.60;82.20
7562;DHT22;3822;48.784;9.174;2023-04-25T02:21:14;11.50;82.20
7562;DHT22;3822;48.784;9.174;2023-04-25T02:23:45;11.50;82.30
7562;DHT22;3822;48.784;9.174;2023-04-25T02:26:14;11.50;82.40
7562;DHT22;3822;48.784;9.174;2023-04-25T02:28:48;12.40;83.40
7562;DHT22;3822;48.784;9.174;2023-04-25T02:31:19;11.50;82.60
7562;DHT22;3822;48.784;9.174;2023-04-25T02:33:47;11.50;82.80
7562;DHT22;3822;48.784;9.174;2023-04-25T02:38:49;11.50;83.00
7562;DHT22;3822;48.784;9.174;2023-04-25T02:41:17;11.50;83.00
7562;DHT22;3822;48.784;9.174;2023-04-25T02:43:58;11.50;83.00
7562;DHT22;3822;48.784;9.174;2023-04-25T02:46:29;11.50;83.00
7562;DHT22;3822;48.784;9.174;2023-04-25T02:49:01;11.50;83.10
7562;DHT22;3822;48.784;9.174;2023-04-25T02:51:30;11.50;83.10
7562;DHT22;3822;48.784;9.174;2023-04-25T02:54:05;11.50;83.30
7562;DHT22;3822;48.784;9.174;2023-04-25T02:56:32;11.50;83.10
7562;DHT22;3822;48.784;9.174;2023-04-25T02:58:58;11.50;83.00
7562;DHT22;3822;48.784;9.174;2023-04-25T03:01:28;11.50;82.90
7562;DHT22;3822;48.784;9.174;2023-04-25T03:04:04;11.40;82.90
7562;DHT22;3822;48.784;9.174;2023-04-25T03:06:30;11.40;83.00
7562;DHT22;3822;48.784;9.174;2023-04-25T03:09:02;11.40;83.00
7562;DHT22;3822;48.784;9.174;2023-04-25T03:11:33;11.30;82.90
7562;DHT22;3822;48.784;9.174;2023-04-25T03:14:00;11.20;82.90
7562;DHT22;3822;48.784;9.174;2023-04-25T03:16:27;11.20;83.00
7562;DHT22;3822;48.784;9.174;2023-04-25T03:18:53;11.20;82.90
7562;DHT22;3822;48.784;9.174;2023-04-25T03:21:20;11.10;82.90
7562;DHT22;3822;48.784;9.174;2023-04-25T03:23:46;11.20;83.20
7562;DHT22;3822;48.784;9.174;2023-04-25T03:26:12;11.20;83.10
7562;DHT22;3822;48.784;9.174;2023-04-25T03:28:38;12.20;84.00
7562;DHT22;3822;48.784;9.174;2023-04-25T03:31:07;11.20;82.90
7562;DHT22;3822;48.784;9.174;2023-04-25T03:33:33;11.20;83.00
7562;DHT22;3822;48.784;9.174;2023-04-25T03:36:03;11.20;82.90
7562;DHT22;3822;48.784;9.174;2023-04-25T03:38:37;11.20;83.00
7562;DHT22;3822;48.784;9.174;2023-04-25T03:44:08;11.20;83.00
7562;DHT22;3822;48.784;9.174;2023-04-25T03:46:35;11.10;82.80
7562;DHT22;3822;48.784;9.174;2023-04-25T03:49:18;11.10;83.20
7562;DHT22;3822;48.784;9.174;2023-04-25T03:51:58;11.10;83.00
7562;DHT22;3822;48.784;9.174;2023-04-25T03:54:28;11.20;83.10
7562;DHT22;3822;48.784;9.174;2023-04-25T03:59:46;11.20;83.20
7562;DHT22;3822;48.784;9.174;2023-04-25T04:04:50;11.10;83.10
7562;DHT22;3822;48.784;9.174;2023-04-25T04:07:17;11.10;83.40
7562;DHT22;3822;48.784;9.174;2023-04-25T04:09:50;11.10;83.30
7562;DHT22;3822;48.784;9.174;2023-04-25T04:12:17;11.10;83.30
7562;DHT22;3822;48.784;9.174;2023-04-25T04:14:44;11.20;83.30
7562;DHT22;3822;48.784;9.174;2023-04-25T04:17:17;11.20;83.30
7562;DHT22;3822;48.784;9.174;2023-04-25T04:19:43;11.10;83.30
7562;DHT22;3822;48.784;9.174;2023-04-25T04:22:11;11.20;83.40
7562;DHT22;3822;48.784;9.174;2023-04-25T04:24:38;11.10;83.20
7562;DHT22;3822;48.784;9.174;2023-04-25T04:27:17;11.20;83.30
7562;DHT22;3822;48.784;9.174;2023-04-25T04:29:56;11.10;83.30
7562;DHT22;3822;48.784;9.174;2023-04-25T04:32:27;11.10;83.40
7562;DHT22;3822;48.784;9.174;2023-04-25T04:35:01;11.10;83.50
7562;DHT22;3822;48.784;9.174;2023-04-25T04:37:33;11.00;83.50
7562;DHT22;3822;48.784;9.174;2023-04-25T04:40:11;11.10;83.70
7562;DHT22;3822;48.784;9.174;2023-04-25T04:42:37;11.00;83.70
7562;DHT22;3822;48.784;9.174;2023-04-25T04:45:04;11.00;84.00
7562;DHT22;3822;48.784;9.174;2023-04-25T04:47:31;11.00;83.80
7562;DHT22;3822;48.784;9.174;2023-04-25T04:50:07;11.10;84.00
7562;DHT22;3822;48.784;9.174;2023-04-25T04:52:39;11.10;84.00
7562;DHT22;3822;48.784;9.174;2023-04-25T04:55:05;11.00;84.00
7562;DHT22;3822;48.784;9.174;2023-04-25T05:02:46;11.00;84.30
7562;DHT22;3822;48.784;9.174;2023-04-25T05:05:12;11.00;84.40
7562;DHT22;3822;48.784;9.174;2023-04-25T05:07:39;10.90;84.30
7562;DHT22;3822;48.784;9.174;2023-04-25T05:10:07;10.90;84.70
7562;DHT22;3822;48.784;9.174;2023-04-25T05:12:37;10.90;84.50
7562;DHT22;3822;48.784;9.174;2023-04-25T05:15:17;10.90;84.70
7562;DHT22;3822;48.784;9.174;2023-04-25T05:17:47;10.90;84.80
7562;DHT22;3822;48.784;9.174;2023-04-25T05:20:13;10.90;85.00
7562;DHT22;3822;48.784;9.174;2023-04-25T05:22:39;10.90;85.20
7562;DHT22;3822;48.784;9.174;2023-04-25T05:25:08;10.90;85.30
7562;DHT22;3822;48.784;9.174;2023-04-25T05:27:35;10.90;85.30
7562;DHT22;3822;48.784;9.174;2023-04-25T05:30:04;11.00;85.30
7562;DHT22;3822;48.784;9.174;2023-04-25T05:32:32;11.00;85.30
7562;DHT22;3822;48.784;9.174;2023-04-25T05:34:59;11.10;85.40
7562;DHT22;3822;48.784;9.174;2023-04-25T05:37:25;11.10;85.40
7562;DHT22;3822;48.784;9.174;2023-04-25T05:39:53;11.00;85.20
7562;DHT22;3822;48.784;9.174;2023-04-25T05:42:19;11.10;85.20
7562;DHT22;3822;48.784;9.174;2023-04-25T05:44:48;11.00;84.90
7562;DHT22;3822;48.784;9.174;2023-04-25T05:47:14;11.00;85.00
7562;DHT22;3822;48.784;9.174;2023-04-25T05:49:41;11.00;85.00
7562;DHT22;3822;48.784;9.174;2023-04-25T05:52:07;11.00;85.10
7562;DHT22;3822;48.784;9.174;2023-04-25T05:54:33;11.00;84.80
7562;DHT22;3822;48.784;9.174;2023-04-25T05:56:59;11.00;84.70
7562;DHT22;3822;48.784;9.174;2023-04-25T05:59:26;11.00;84.60
7562;DHT22;3822;48.784;9.174;2023-04-25T06:01:54;11.00;84.30
7562;DHT22;3822;48.784;9.174;2023-04-25T06:04:21;10.90;84.10
7562;DHT22;3822;48.784;9.174;2023-04-25T06:06:48;10.90;83.80
7562;DHT22;3822;48.784;9.174;2023-04-25T06:09:14;10.90;83.60
7562;DHT22;3822;48.784;9.174;2023-04-25T06:11:40;10.90;83.50
7562;DHT22;3822;48.784;9.174;2023-04-25T06:14:06;10.90;83.50
7562;DHT22;3822;48.784;9.174;2023-04-25T06:16:33;10.90;83.60
7562;DHT22;3822;48.784;9.174;2023-04-25T06:18:59;10.90;83.70
7562;DHT22;3822;48.784;9.174;2023-04-25T06:21:25;10.90;83.50
7562;DHT22;3822;48.784;9.174;2023-04-25T06:23:53;10.90;83.40
7562;DHT22;3822;48.784;9.174;2023-04-25T06:26:19;11.00;83.50
7562;DHT22;3822;48.784;9.174;2023-04-25T06:28:45;11.00;83.40
7562;DHT22;3822;48.784;9.174;2023-04-25T06:31:12;11.00;83.40
7562;DHT22;3822;48.784;9.174;2023-04-25T06:33:38;11.10;83.40
7562;DHT22;3822;48.784;9.174;2023-04-25T06:36:04;11.10;83.30
7562;DHT22;3822;48.784;9.174;2023-04-25T06:38:30;11.10;83.10
7562;DHT22;3822;48.784;9.174;2023-04-25T06:40:57;11.40;83.50
7562;DHT22;3822;48.784;9.174;2023-04-25T06:43:23;11.10;83.40
7562;DHT22;3822;48.784;9.174;2023-04-25T06:45:49;11.10;83.50
7562;DHT22;3822;48.784;9.174;2023-04-25T06:48:16;11.20;83.50
7562;DHT22;3822;48.784;9.174;2023-04-25T06:50:42;11.20;83.30
7562;DHT22;3822;48.784;9.174;2023-04-25T06:53:08;11.20;83.20
7562;DHT22;3822;48.784;9.174;2023-04-25T06:55:34;9.30;82.70
7562;DHT22;3822;48.784;9.174;2023-04-25T06:58:01;11.20;83.80
7562;DHT22;3822;48.784;9.174;2023-04-25T07:00:27;11.10;84.00
7562;DHT22;3822;48.784;9.174;2023-04-25T07:02:54;11.10;84.10
7562;DHT22;3822;48.784;9.174;2023-04-25T07:05:20;12.60;85.70
7562;DHT22;3822;48.784;9.174;2023-04-25T07:07:48;11.10;84.30
7562;DHT22;3822;48.784;9.174;2023-04-25T07:10:14;11.10;84.40
7562;DHT22;3822;48.784;9.174;2023-04-25T07:12:41;12.30;85.60
7562;DHT22;3822;48.784;9.174;2023-04-25T07:15:07;11.20;84.60
7562;DHT22;3822;48.784;9.174;2023-04-25T07:17:35;11.20;84.30
7562;DHT22;3822;48.784;9.174;2023-04-25T07:20:02;11.30;84.30
7562;DHT22;3822;48.784;9.174;2023-04-25T07:22:29;11.30;84.30
7562;DHT22;3822;48.784;9.174;2023-04-25T07:24:58;11.30;84.40
7562;DHT22;3822;48.784;9.174;2023-04-25T07:27:24;11.30;84.60
7562;DHT22;3822;48.784;9.174;2023-04-25T07:29:50;11.30;84.70
7562;DHT22;3822;48.784;9.174;2023-04-25T07:32:18;11.30;84.60
7562;DHT22;3822;48.784;9.174;2023-04-25T07:34:44;11.30;84.60
7562;DHT22;3822;48.784;9.174;2023-04-25T07:37:10;11.30;84.80
7562;DHT22;3822;48.784;9.174;2023-04-25T07:39:37;11.30;85.00
7562;DHT22;3822;48.784;9.174;2023-04-25T07:42:03;11.30;84.90
7562;DHT22;3822;48.784;9.174;2023-04-25T07:44:29;11.20;85.00
7562;DHT22;3822;48.784;9.174;2023-04-25T07:47:04;11.30;85.40
7562;DHT22;3822;48.784;9.174;2023-04-25T07:49:36;11.20;85.60
7562;DHT22;3822;48.784;9.174;2023-04-25T07:52:03;11.20;85.80
7562;DHT22;3822;48.784;9.174;2023-04-25T07:54:34;11.20;86.10
7562;DHT22;3822;48.784;9.174;2023-04-25T07:57:00;11.10;86.40
7562;DHT22;3822;48.784;9.174;2023-04-25T07:59:27;11.10;86.60
7562;DHT22;3822;48.784;9.174;2023-04-25T08:01:53;11.10;86.90
7562;DHT22;3822;48.784;9.174;2023-04-25T08:04:19;11.10;87.20
7562;DHT22;3822;48.784;9.174;2023-04-25T08:06:45;11.00;87.80
7562;DHT22;3822;48.784;9.174;2023-04-25T08:09:12;11.10;88.20
7562;DHT22;3822;48.784;9.174;2023-04-25T08:11:41;9.60;88.00
7562;DHT22;3822;48.784;9.174;2023-04-25T08:14:07;11.00;88.40
7562;DHT22;3822;48.784;9.174;2023-04-25T08:16:34;11.00;88.70
7562;DHT22;3822;48.784;9.174;2023-04-25T08:19:00;11.00;88.90
7562;DHT22;3822;48.784;9.174;2023-04-25T08:21:37;11.00;89.30
7562;DHT22;3822;48.784;9.174;2023-04-25T08:24:03;11.00;89.80
7562;DHT22;3822;48.784;9.174;2023-04-25T08:26:30;11.00;89.90
7562;DHT22;3822;48.784;9.174;2023-04-25T08:28:57;11.60;90.30
7562;DHT22;3822;48.784;9.174;2023-04-25T08:31:23;11.00;90.10
7562;DHT22;3822;48.784;9.174;2023-04-25T08:33:51;11.00;90.20
7562;DHT22;3822;48.784;9.174;2023-04-25T08:36:17;9.10;90.00
7562;DHT22;3822;48.784;9.174;2023-04-25T08:38:44;11.00;90.50
7562;DHT22;3822;48.784;9.174;2023-04-25T08:41:11;11.00;90.60
7562;DHT22;3822;48.784;9.174;2023-04-25T08:43:39;11.00;90.80
7562;DHT22;3822;48.784;9.174;2023-04-25T08:46:08;11.00;90.80
7562;DHT22;3822;48.784;9.174;2023-04-25T08:48:34;11.00;90.90
7562;DHT22;3822;48.784;9.174;2023-04-25T08:51:01;11.00;91.00
7562;DHT22;3822;48.784;9.174;2023-04-25T08:53:31;11.00;91.20
7562;DHT22;3822;48.784;9.174;2023-04-25T08:55:59;11.00;91.30
7562;DHT22;3822;48.784;9.174;2023-04-25T08:58:28;11.00;91.50
7562;DHT22;3822;48.784;9.174;2023-04-25T09:00:54;11.00;91.60
7562;DHT22;3822;48.784;9.174;2023-04-25T09:03:22;10.90;91.50
7562;DHT22;3822;48.784;9.174;2023-04-25T09:05:48;10.80;91.40
7562;DHT22;3822;48.784;9.174;2023-04-25T09:08:15;10.80;91.30
7562;DHT22;3822;48.784;9.174;2023-04-25T09:10:43;10.70;91.40
7562;DHT22;3822;48.784;9.174;2023-04-25T09:13:11;10.70;91.40
7562;DHT22;3822;48.784;9.174;2023-04-25T09:15:52;10.70;91.50
7562;DHT22;3822;48.784;9.174;2023-04-25T09:18:22;10.60;91.50
7562;DHT22;3822;48.784;9.174;2023-04-25T09:20:50;10.70;91.70
7562;DHT22;3822;48.784;9.174;2023-04-25T09:23:18;10.60;91.70
7562;DHT22;3822;48.784;9.174;2023-04-25T09:25:50;10.70;91.80
7562;DHT22;3822;48.784;9.174;2023-04-25T09:28:24;10.60;92.00
7562;DHT22;3822;48.784;9.174;2023-04-25T09:30:55;10.60;92.10
7562;DHT22;3822;48.784;9.174;2023-04-25T09:33:29;10.60;92.20
7562;DHT22;3822;48.784;9.174;2023-04-25T09:36:01;10.60;92.20
7562;DHT22;3822;48.784;9.174;2023-04-25T09:38:30;10.60;92.30
7562;DHT22;3822;48.784;9.174;2023-04-25T09:40:59;10.60;92.40
7562;DHT22;3822;48.784;9.174;2023-04-25T09:43:26;10.60;92.40
7562;DHT22;3822;48.784;9.174;2023-04-25T09:45:54;10.60;92.40
7562;DHT22;3822;48.784;9.174;2023-04-25T09:48:24;10.60;92.40
7562;DHT22;3822;48.784;9.174;2023-04-25T09:53:30;10.70;92.40
7562;DHT22;3822;48.784;9.174;2023-04-25T09:55:59;10.70;92.40
7562;DHT22;3822;48.784;9.174;2023-04-25T09:58:26;10.70;92.30
7562;DHT22;3822;48.784;9.174;2023-04-25T10:00:56;10.70;92.20
7562;DHT22;3822;48.784;9.174;2023-04-25T10:03:27;10.80;92.30
7562;DHT22;3822;48.784;9.174;2023-04-25T10:05:57;10.70;92.30
7562;DHT22;3822;48.784;9.174;2023-04-25T10:08:27;10.80;92.40
7562;DHT22;3822;48.784;9.174;2023-04-25T10:10:59;10.80;92.40
7562;DHT22;3822;48.784;9.174;2023-04-25T10:13:27;10.80;92.40
7562;DHT22;3822;48.784;9.174;2023-04-25T10:15:56;10.90;92.40
7562;DHT22;3822;48.784;9.174;2023-04-25T10:18:24;10.90;92.40
7562;DHT22;3822;48.784;9.174;2023-04-25T10:20:54;10.80;92.50
7562;DHT22;3822;48.784;9.174;2023-04-25T10:23:21;10.90;92.40
7562;DHT22;3822;48.784;9.174;2023-04-25T10:25:48;10.90;92.40
7562;DHT22;3822;48.784;9.174;2023-04-25T10:28:15;10.90;92.30
7562;DHT22;3822;48.784;9.174;2023-04-25T10:31:00;10.80;92.20
7562;DHT22;3822;48.784;9.174;2023-04-25T10:36:21;10.80;92.10
7562;DHT22;3822;48.784;9.174;2023-04-25T10:38:52;10.70;92.00
7562;DHT22;3822;48.784;9.174;2023-04-25T10:41:20;10.70;92.10
7562;DHT22;3822;48.784;9.174;2023-04-25T10:43:49;10.60;92.00
7562;DHT22;3822;48.784;9.174;2023-04-25T10:46:23;10.60;92.10
7562;DHT22;3822;48.784;9.174;2023-04-25T10:49:00;10.60;92.20
7562;DHT22;3822;48.784;9.174;2023-04-25T10:51:27;10.60;92.40
7562;DHT22;3822;48.784;9.174;2023-04-25T10:56:21;10.50;92.10
7562;DHT22;3822;48.784;9.174;2023-04-25T10:58:48;10.40;92.00
7562;DHT22;3822;48.784;9.174;2023-04-25T11:01:21;10.40;92.00
7562;DHT22;3822;48.784;9.174;2023-04-25T11:03:56;10.40;92.10
7562;DHT22;3822;48.784;9.174;2023-04-25T11:06:28;10.30;92.10
7562;DHT22;3822;48.784;9.174;2023-04-25T11:08:57;10.30;92.20
7562;DHT22;3822;48.784;9.174;2023-04-25T11:11:26;10.40;92.30
7562;DHT22;3822;48.784;9.174;2023-04-25T11:13:52;10.40;92.50
7562;DHT22;3822;48.784;9.174;2023-04-25T11:16:19;10.40;92.50
7562;DHT22;3822;48.784;9.174;2023-04-25T11:18:45;10.50;92.50
7562;DHT22;3822;48.784;9.174;2023-04-25T11:21:11;10.60;92.50
7562;DHT22;3822;48.784;9.174;2023-04-25T11:23:38;10.40;92.30
7562;DHT22;3822;48.784;9.174;2023-04-25T11:26:05;10.40;92.10
7562;DHT22;3822;48.784;9.174;2023-04-25T11:28:31;12.50;93.20
7562;DHT22;3822;48.784;9.174;2023-04-25T11:30:57;10.30;92.00
7562;DHT22;3822;48.784;9.174;2023-04-25T11:33:24;10.30;91.80
7562;DHT22;3822;48.784;9.174;2023-04-25T11:35:54;10.30;91.60
7562;DHT22;3822;48.784;9.174;2023-04-25T11:38:24;10.30;91.60
7562;DHT22;3822;48.784;9.174;2023-04-25T11:40:53;10.30;91.60
7562;DHT22;3822;48.784;9.174;2023-04-25T11:43:20;10.30;91.60
7562;DHT22;3822;48.784;9.174;2023-04-25T11:45:50;10.30;91.70
7562;DHT22;3822;48.784;9.174;2023-04-25T11:48:17;10.30;91.70
7562;DHT22;3822;48.784;9.174;2023-04-25T11:50:46;10.30;91.80
7562;DHT22;3822;48.784;9.174;2023-04-25T11:53:13;10.30;91.80
7562;DHT22;3822;48.784;9.174;2023-04-25T11:55:39;10.30;91.80
7562;DHT22;3822;48.784;9.174;2023-04-25T11:58:06;10.30;91.80
7562;DHT22;3822;48.784;9.174;2023-04-25T12:00:32;10.20;91.70
7562;DHT22;3822;48.784;9.174;2023-04-25T12:02:59;10.20;91.70
7562;DHT22;3822;48.784;9.174;2023-04-25T12:05:28;10.20;91.80
7562;DHT22;3822;48.784;9.174;2023-04-25T12:07:56;10.20;91.90
7562;DHT22;3822;48.784;9.174;2023-04-25T12:10:23;10.20;92.10
7562;DHT22;3822;48.784;9.174;2023-04-25T12:12:50;10.20;92.10
7562;DHT22;3822;48.784;9.174;2023-04-25T12:15:17;10.30;92.00
7562;DHT22;3822;48.784;9.174;2023-04-25T12:17:48;10.30;92.00
7562;DHT22;3822;48.784;9.174;2023-04-25T12:20:15;10.30;92.00
7562;DHT22;3822;48.784;9.174;2023-04-25T12:22:47;10.30;92.00
7562;DHT22;3822;48.784;9.174;2023-04-25T12:28:12;10.30;92.20
7562;DHT22;3822;48.784;9.174;2023-04-25T12:33:34;10.30;92.00
7562;DHT22;3822;48.784;9.174;2023-04-25T12:36:03;10.30;92.00
7562;DHT22;3822;48.784;9.174;2023-04-25T12:38:38;10.30;91.90
7562;DHT22;3822;48.784;9.174;2023-04-25T12:41:05;10.30;91.80
7562;DHT22;3822;48.784;9.174;2023-04-25T12:43:32;10.30;91.90
7562;DHT22;3822;48.784;9.174;2023-04-25T12:45:58;10.30;91.90
7562;DHT22;3822;48.784;9.174;2023-04-25T12:48:25;10.40;91.90
7562;DHT22;3822;48.784;9.174;2023-04-25T12:50:52;10.50;92.10
7562;DHT22;3822;48.784;9.174;2023-04-25T12:53:18;10.80;92.30
7562;DHT22;3822;48.784;9.174;2023-04-25T12:55:46;10.60;92.30
7562;DHT22;3822;48.784;9.174;2023-04-25T12:58:16;10.70;92.30
7562;DHT22;3822;48.784;9.174;2023-04-25T13:00:44;10.80;92.30
7562;DHT22;3822;48.784;9.174;2023-04-25T13:03:11;10.90;92.30
7562;DHT22;3822;48.784;9.174;2023-04-25T13:05:38;11.10;92.30
7562;DHT22;3822;48.784;9.174;2023-04-25T13:08:04;11.10;92.30
7562;DHT22;3822;48.784;9.174;2023-04-25T13:10:31;11.20;92.20
7562;DHT22;3822;48.784;9.174;2023-04-25T13:12:59;11.30;92.10
7562;DHT22;3822;48.784;9.174;2023-04-25T13:15:26;11.40;92.00
7562;DHT22;3822;48.784;9.174;2023-04-25T13:17:53;11.50;92.00
7562;DHT22;3822;48.784;9.174;2023-04-25T13:20:19;11.60;91.90
7562;DHT22;3822;48.784;9.174;2023-04-25T13:22:48;11.70;91.70
7562;DHT22;3822;48.784;9.174;2023-04-25T13:25:14;11.70;91.10
7562;DHT22;3822;48.784;9.174;2023-04-25T13:27:41;11.70;91.00
7562;DHT22;3822;48.784;9.174;2023-04-25T13:30:09;11.70;91.20
7562;DHT22;3822;48.784;9.174;2023-04-25T13:32:37;11.70;91.10
7562;DHT22;3822;48.784;9.174;2023-04-25T13:35:08;11.80;90.90
7562;DHT22;3822;48.784;9.174;2023-04-25T13:37:37;11.90;90.80
7562;DHT22;3822;48.784;9.174;2023-04-25T13:45:07;11.90;90.50
7562;DHT22;3822;48.784;9.174;2023-04-25T13:47:34;12.00;90.40
7562;DHT22;3822;48.784;9.174;2023-04-25T13:50:00;12.00;90.30
7562;DHT22;3822;48.784;9.174;2023-04-25T13:55:00;12.10;90.40
7562;DHT22;3822;48.784;9.174;2023-04-25T13:57:35;12.10;90.40
7562;DHT22;3822;48.784;9.174;2023-04-25T14:00:03;12.20;90.50
7562;DHT22;3822;48.784;9.174;2023-04-25T14:02:35;12.20;90.50
7562;DHT22;3822;48.784;9.174;2023-04-25T14:05:03;11.10;90.20
7562;DHT22;3822;48.784;9.174;2023-04-25T14:07:30;12.30;90.60
7562;DHT22;3822;48.784;9.174;2023-04-25T14:09:59;12.30;90.40
7562;DHT22;3822;48.784;9.174;2023-04-25T14:12:25;12.30;90.30
7562;DHT22;3822;48.784;9.174;2023-04-25T14:14:53;13.90;90.90
7562;DHT22;3822;48.784;9.174;2023-04-25T14:17:19;10.60;88.70
7562;DHT22;3822;48.784;9.174;2023-04-25T14:19:49;12.50;89.70
7562;DHT22;3822;48.784;9.174;2023-04-25T14:22:17;12.60;89.00
7562;DHT22;3822;48.784;9.174;2023-04-25T14:24:46;12.70;88.10
7562;DHT22;3822;48.784;9.174;2023-04-25T14:27:13;12.70;87.60
7562;DHT22;3822;48.784;9.174;2023-04-25T14:29:39;12.90;87.90
7562;DHT22;3822;48.784;9.174;2023-04-25T14:32:06;13.00;87.50
7562;DHT22;3822;48.784;9.174;2023-04-25T14:34:33;13.20;87.00
7562;DHT22;3822;48.784;9.174;2023-04-25T14:37:02;13.30;86.30
7562;DHT22;3822;48.784;9.174;2023-04-25T14:39:28;13.30;85.70
7562;DHT22;3822;48.784;9.174;2023-04-25T14:44:43;13.50;85.00
7562;DHT22;3822;48.784;9.174;2023-04-25T14:47:09;13.50;84.00
7562;DHT22;3822;48.784;9.174;2023-04-25T14:49:36;13.50;84.30
7562;DHT22;3822;48.784;9.174;2023-04-25T14:52:02;13.50;83.40
7562;DHT22;3822;48.784;9.174;2023-04-25T14:54:31;13.60;82.90
7562;DHT22;3822;48.784;9.174;2023-04-25T14:56:58;13.60;83.10
7562;DHT22;3822;48.784;9.174;2023-04-25T14:59:24;13.50;82.70
7562;DHT22;3822;48.784;9.174;2023-04-25T15:01:53;13.70;82.70
7562;DHT22;3822;48.784;9.174;2023-04-25T15:04:20;13.70;82.70
7562;DHT22;3822;48.784;9.174;2023-04-25T15:06:46;13.70;82.50
7562;DHT22;3822;48.784;9.174;2023-04-25T15:09:13;13.70;82.70
7562;DHT22;3822;48.784;9.174;2023-04-25T15:11:39;13.80;82.80
7562;DHT22;3822;48.784;9.174;2023-04-25T15:14:06;13.80;82.50
7562;DHT22;3822;48.784;9.174;2023-04-25T15:16:32;13.80;82.40
7562;DHT22;3822;48.784;9.174;2023-04-25T15:18:58;13.80;82.40
7562;DHT22;3822;48.784;9.174;2023-04-25T15:21:25;13.80;82.40
7562;DHT22;3822;48.784;9.174;2023-04-25T15:23:52;13.80;82.00
7562;DHT22;3822;48.784;9.174;2023-04-25T15:26:18;13.80;81.90
7562;DHT22;3822;48.784;9.174;2023-04-25T15:28:46;15.00;83.40
7562;DHT22;3822;48.784;9.174;2023-04-25T15:31:12;13.90;82.20
7562;DHT22;3822;48.784;9.174;2023-04-25T15:33:38;13.80;81.90
7562;DHT22;3822;48.784;9.174;2023-04-25T15:36:05;13.90;81.80
7562;DHT22;3822;48.784;9.174;2023-04-25T15:38:32;14.00;82.00
7562;DHT22;3822;48.784;9.174;2023-04-25T15:40:59;12.60;80.70
7562;DHT22;3822;48.784;9.174;2023-04-25T15:43:25;14.10;81.90
7562;DHT22;3822;48.784;9.174;2023-04-25T15:45:52;14.20;81.60
7562;DHT22;3822;48.784;9.174;2023-04-25T15:48:18;14.30;81.10
7562;DHT22;3822;48.784;9.174;2023-04-25T15:50:44;14.30;80.90
7562;DHT22;3822;48.784;9.174;2023-04-25T15:53:11;14.30;80.60
7562;DHT22;3822;48.784;9.174;2023-04-25T15:55:37;14.40;80.30
7562;DHT22;3822;48.784;9.174;2023-04-25T15:58:04;14.40;79.80
7562;DHT22;3822;48.784;9.174;2023-04-25T16:00:30;14.30;79.50
7562;DHT22;3822;48.784;9.174;2023-04-25T16:02:59;14.30;79.00
7562;DHT22;3822;48.784;9.174;2023-04-25T16:05:26;14.20;78.80
7562;DHT22;3822;48.784;9.174;2023-04-25T16:07:52;14.20;78.80
7562;DHT22;3822;48.784;9.174;2023-04-25T16:10:19;14.10;79.10
7562;DHT22;3822;48.784;9.174;2023-04-25T16:12:46;14.10;79.40
7562;DHT22;3822;48.784;9.174;2023-04-25T16:15:14;14.10;79.70
7562;DHT22;3822;48.784;9.174;2023-04-25T16:17:41;14.10;79.70
7562;DHT22;3822;48.784;9.174;2023-04-25T16:20:08;14.10;79.60
7562;DHT22;3822;48.784;9.174;2023-04-25T16:22:37;14.00;79.60
7562;DHT22;3822;48.784;9.174;2023-04-25T16:25:04;14.00;79.50
7562;DHT22;3822;48.784;9.174;2023-04-25T16:27:32;13.90;79.50
7562;DHT22;3822;48.784;9.174;2023-04-25T16:30:03;13.80;79.40
7562;DHT22;3822;48.784;9.174;2023-04-25T16:32:30;13.90;79.60
7562;DHT22;3822;48.784;9.174;2023-04-25T16:34:57;13.80;79.50
7562;DHT22;3822;48.784;9.174;2023-04-25T16:37:24;13.80;79.50
7562;DHT22;3822;48.784;9.174;2023-04-25T16:39:51;13.80;79.60
7562;DHT22;3822;48.784;9.174;2023-04-25T16:42:17;13.80;79.50
7562;DHT22;3822;48.784;9.174;2023-04-25T16:44:43;13.70;79.40
7562;DHT22;3822;48.784;9.174;2023-04-25T16:47:09;13.70;79.60
7562;DHT22;3822;48.784;9.174;2023-04-25T16:49:36;13.70;79.90
7562;DHT22;3822;48.784;9.174;2023-04-25T16:52:04;13.70;80.00
7562;DHT22;3822;48.784;9.174;2023-04-25T16:54:30;13.70;79.50
7562;DHT22;3822;48.784;9.174;2023-04-25T16:56:56;13.70;79.30
7562;DHT22;3822;48.784;9.174;2023-04-25T16:59:29;13.70;79.20
7562;DHT22;3822;48.784;9.174;2023-04-25T17:01:57;13.60;79.10
7562;DHT22;3822;48.784;9.174;2023-04-25T17:04:27;13.50;78.80
7562;DHT22;3822;48.784;9.174;2023-04-25T17:06:53;13.40;79.00
7562;DHT22;3822;48.784;9.174;2023-04-25T17:09:19;13.40;79.30
7562;DHT22;3822;48.784;9.174;2023-04-25T17:11:46;13.30;79.30
7562;DHT22;3822;48.784;9.174;2023-04-25T17:14:13;13.30;79.70
7562;DHT22;3822;48.784;9.174;2023-04-25T17:16:39;13.30;80.40
7562;DHT22;3822;48.784;9.174;2023-04-25T17:19:06;13.30;81.30